createdAt,value
2018-09-01T00:01:32.613Z,13.20
2018-09-01T00:03:37.108Z,13.30
2018-09-01T00:05:41.919Z,13.30
2018-09-01T00:07:46.580Z,13.40
2018-09-01T00:09:51.210Z,13.50
2018-09-01T00:11:56.506Z,13.40
2018-09-01T00:14:00.906Z,13.20
2018-09-01T00:16:06.042Z,13.00
2018-09-01T00:18:10.644Z,13.10
2018-09-01T00:20:15.137Z,13.20
2018-09-01T00:22:19.549Z,13.20
2018-09-01T00:24:24.475Z,13.30
2018-09-01T00:26:29.097Z,13.10
2018-09-01T00:28:34.053Z,13.10
2018-09-01T00:30:38.567Z,13.20
2018-09-01T00:32:43.025Z,13.30
2018-09-01T00:34:47.447Z,13.00
2018-09-01T00:36:51.975Z,13.10
2018-09-01T00:39:01.358Z,13.20
2018-09-01T00:41:06.041Z,13.20
2018-09-01T00:43:10.724Z,13.30
2018-09-01T00:45:15.466Z,13.30
2018-09-01T00:47:20.164Z,13.30
2018-09-01T00:49:24.810Z,13.30
2018-09-01T00:51:29.711Z,13.30
2018-09-01T00:53:34.130Z,13.20
2018-09-01T00:55:38.541Z,13.20
2018-09-01T00:57:43.874Z,13.20
2018-09-01T00:59:48.322Z,13.00
2018-09-01T01:01:53.547Z,13.20
2018-09-01T01:03:58.258Z,13.20
2018-09-01T01:06:03.089Z,13.00
2018-09-01T01:08:07.918Z,13.00
2018-09-01T01:10:13.115Z,13.00
2018-09-01T01:12:17.603Z,13.00
2018-09-01T01:14:22.187Z,13.00
2018-09-01T01:16:26.751Z,12.80
2018-09-01T01:18:31.278Z,12.90
2018-09-01T01:20:35.818Z,12.60
2018-09-01T01:22:40.459Z,12.60
2018-09-01T01:24:45.493Z,12.70
2018-09-01T01:26:53.924Z,12.80
2018-09-01T01:28:58.767Z,12.70
2018-09-01T01:31:03.437Z,12.80
2018-09-01T01:33:08.724Z,12.90
2018-09-01T01:35:13.968Z,12.90
2018-09-01T01:37:18.553Z,12.60
2018-09-01T01:39:22.969Z,12.60
2018-09-01T01:41:27.922Z,12.70
2018-09-01T01:43:32.466Z,12.80
2018-09-01T01:45:50.054Z,12.80
2018-09-01T01:47:56.749Z,12.60
2018-09-01T01:50:01.178Z,12.90
2018-09-01T01:52:06.514Z,12.80
2018-09-01T01:54:11.922Z,12.70
2018-09-01T01:56:16.502Z,12.50
2018-09-01T01:58:21.060Z,12.30
2018-09-01T02:00:25.501Z,12.50
2018-09-01T02:02:29.942Z,12.50
2018-09-01T02:04:34.422Z,12.40
2018-09-01T02:06:39.668Z,12.60
2018-09-01T02:08:44.395Z,12.60
2018-09-01T02:10:49.219Z,12.20
2018-09-01T02:12:53.924Z,11.90
2018-09-01T02:14:58.625Z,11.90
2018-09-01T02:17:03.833Z,12.00
2018-09-01T02:19:08.407Z,12.20
2018-09-01T02:21:12.813Z,11.70
2018-09-01T02:23:18.739Z,12.00
2018-09-01T02:25:23.534Z,11.50
2018-09-01T02:27:28.510Z,11.80
2018-09-01T02:29:33.185Z,11.50
2018-09-01T02:31:38.014Z,11.80
2018-09-01T02:33:42.607Z,12.00
2018-09-01T02:35:47.274Z,11.80
2018-09-01T02:37:51.696Z,11.60
2018-09-01T02:39:57.179Z,11.40
2018-09-01T02:42:02.181Z,11.10
2018-09-01T02:44:07.149Z,11.00
2018-09-01T02:46:11.795Z,11.20
2018-09-01T02:48:16.999Z,11.10
2018-09-01T02:50:22.283Z,11.20
2018-09-01T02:52:26.719Z,11.40
2018-09-01T02:54:32.348Z,11.80
2018-09-01T02:56:36.956Z,11.70
2018-09-01T02:58:42.368Z,12.00
2018-09-01T03:00:49.091Z,12.10
2018-09-01T03:02:53.860Z,12.30
2018-09-01T03:04:58.973Z,12.30
2018-09-01T03:07:03.930Z,12.30
2018-09-01T03:09:08.606Z,12.20
2018-09-01T03:11:13.202Z,12.00
2018-09-01T03:13:17.765Z,12.10
2018-09-01T03:15:22.273Z,12.30
2018-09-01T03:17:26.798Z,12.30
2018-09-01T03:19:31.196Z,12.20
2018-09-01T03:21:35.719Z,12.20
2018-09-01T03:23:40.324Z,12.10
2018-09-01T03:25:44.869Z,12.30
2018-09-01T03:27:49.230Z,12.30
2018-09-01T03:29:53.885Z,12.30
2018-09-01T03:31:59.035Z,12.40
2018-09-01T03:34:03.673Z,12.30
2018-09-01T03:36:08.559Z,12.30
2018-09-01T03:38:13.205Z,12.30
2018-09-01T03:40:17.910Z,12.20
2018-09-01T03:42:22.637Z,12.20
2018-09-01T03:44:27.078Z,12.20
2018-09-01T03:46:31.687Z,12.20
2018-09-01T03:48:36.273Z,12.10
2018-09-01T03:50:41.568Z,12.00
2018-09-01T03:52:46.833Z,12.10
2018-09-01T03:54:51.321Z,12.10
2018-09-01T03:56:56.007Z,12.10
2018-09-01T03:59:01.294Z,12.20
2018-09-01T04:01:05.791Z,11.80
2018-09-01T04:03:10.171Z,11.90
2018-09-01T04:05:14.839Z,11.80
2018-09-01T04:07:19.497Z,12.00
2018-09-01T04:09:23.966Z,12.00
2018-09-01T04:11:28.695Z,11.90
2018-09-01T04:13:33.217Z,11.50
2018-09-01T04:15:37.901Z,11.60
2018-09-01T04:17:42.770Z,11.90
2018-09-01T04:19:47.945Z,11.80
2018-09-01T04:21:52.815Z,11.90
2018-09-01T04:23:57.413Z,12.10
2018-09-01T04:26:01.874Z,12.10
2018-09-01T04:28:06.247Z,12.10
2018-09-01T04:30:10.799Z,11.80
2018-09-01T04:32:15.324Z,11.70
2018-09-01T04:34:20.826Z,11.60
2018-09-01T04:36:25.411Z,11.60
2018-09-01T04:38:30.143Z,11.80
2018-09-01T04:40:34.674Z,11.90
2018-09-01T04:42:39.492Z,11.60
2018-09-01T04:44:44.207Z,11.60
2018-09-01T04:46:48.940Z,11.60
2018-09-01T04:48:53.724Z,11.20
2018-09-01T04:50:58.088Z,11.30
2018-09-01T04:53:02.627Z,11.30
2018-09-01T04:55:07.546Z,11.20
2018-09-01T04:57:12.154Z,11.30
2018-09-01T04:59:17.146Z,11.40
2018-09-01T05:01:22.462Z,11.70
2018-09-01T05:03:27.274Z,11.80
2018-09-01T05:05:32.394Z,11.90
2018-09-01T05:07:36.991Z,12.00
2018-09-01T05:09:42.076Z,12.10
2018-09-01T05:11:47.600Z,12.00
2018-09-01T05:13:52.032Z,12.00
2018-09-01T05:15:56.934Z,12.10
2018-09-01T05:18:01.421Z,12.00
2018-09-01T05:20:06.227Z,12.00
2018-09-01T05:22:11.054Z,12.10
2018-09-01T05:24:15.827Z,12.10
2018-09-01T05:26:20.464Z,11.90
2018-09-01T05:28:25.321Z,11.90
2018-09-01T05:30:30.707Z,12.00
2018-09-01T05:32:35.454Z,12.20
2018-09-01T05:34:40.045Z,12.10
2018-09-01T05:36:44.859Z,11.90
2018-09-01T05:38:49.991Z,12.00
2018-09-01T05:40:54.650Z,12.00
2018-09-01T05:42:59.070Z,12.00
2018-09-01T05:45:03.597Z,12.00
2018-09-01T05:47:08.254Z,12.00
2018-09-01T05:49:12.759Z,11.90
2018-09-01T05:51:17.340Z,11.70
2018-09-01T05:53:22.451Z,11.80
2018-09-01T05:55:27.227Z,11.70
2018-09-01T05:57:32.210Z,11.70
2018-09-01T05:59:36.997Z,11.90
2018-09-01T06:01:41.925Z,11.90
2018-09-01T06:03:46.461Z,11.60
2018-09-01T06:05:51.084Z,11.40
2018-09-01T06:07:55.776Z,11.50
2018-09-01T06:10:00.516Z,11.50
2018-09-01T06:12:05.055Z,11.70
2018-09-01T06:14:10.013Z,11.80
2018-09-01T06:16:14.427Z,11.70
2018-09-01T06:18:19.471Z,11.70
2018-09-01T06:20:23.967Z,11.60
2018-09-01T06:22:28.645Z,11.60
2018-09-01T06:24:33.374Z,11.80
2018-09-01T06:26:37.856Z,11.80
2018-09-01T06:28:46.856Z,11.70
2018-09-01T06:30:53.021Z,11.80
2018-09-01T06:32:58.615Z,11.90
2018-09-01T06:35:04.326Z,12.00
2018-09-01T06:37:09.428Z,12.10
2018-09-01T06:39:14.393Z,12.10
2018-09-01T06:41:18.965Z,12.00
2018-09-01T06:43:23.677Z,12.10
2018-09-01T06:45:28.557Z,12.10
2018-09-01T06:47:33.619Z,12.00
2018-09-01T06:49:38.733Z,12.10
2018-09-01T06:51:43.987Z,12.20
2018-09-01T06:53:48.431Z,12.20
2018-09-01T06:55:54.017Z,12.30
2018-09-01T06:57:58.421Z,12.30
2018-09-01T07:00:03.011Z,12.20
2018-09-01T07:02:08.141Z,12.30
2018-09-01T07:04:12.737Z,12.30
2018-09-01T07:06:17.779Z,12.30
2018-09-01T07:08:22.338Z,12.30
2018-09-01T07:10:27.581Z,12.40
2018-09-01T07:12:32.813Z,12.30
2018-09-01T07:14:37.511Z,12.40
2018-09-01T07:16:42.203Z,12.40
2018-09-01T07:18:46.845Z,12.50
2018-09-01T07:20:51.449Z,12.50
2018-09-01T07:22:56.650Z,12.60
2018-09-01T07:25:01.263Z,12.70
2018-09-01T07:27:06.065Z,12.80
2018-09-01T07:29:10.651Z,12.80
2018-09-01T07:31:15.769Z,12.90
2018-09-01T07:33:20.304Z,12.90
2018-09-01T07:35:24.818Z,13.00
2018-09-01T07:37:29.540Z,13.20
2018-09-01T07:39:34.561Z,13.10
2018-09-01T07:41:38.988Z,13.30
2018-09-01T07:43:43.684Z,13.30
2018-09-01T07:45:48.233Z,13.20
2018-09-01T07:47:52.811Z,13.20
2018-09-01T07:49:57.560Z,13.30
2018-09-01T07:52:02.035Z,13.30
2018-09-01T07:54:06.800Z,13.30
2018-09-01T07:56:11.822Z,13.50
2018-09-01T07:58:17.040Z,13.50
2018-09-01T08:00:22.123Z,13.60
2018-09-01T08:02:26.920Z,13.70
2018-09-01T08:04:31.522Z,13.70
2018-09-01T08:06:36.049Z,13.80
2018-09-01T08:08:40.707Z,13.80
2018-09-01T08:10:45.764Z,13.70
2018-09-01T08:12:50.494Z,13.70
2018-09-01T08:14:55.059Z,13.80
2018-09-01T08:17:00.018Z,14.00
2018-09-01T08:19:04.762Z,14.00
2018-09-01T08:21:10.034Z,13.90
2018-09-01T08:23:15.610Z,14.00
2018-09-01T08:25:20.359Z,14.00
2018-09-01T08:27:24.955Z,14.00
2018-09-01T08:29:29.747Z,14.20
2018-09-01T08:31:34.464Z,14.10
2018-09-01T08:33:39.327Z,14.10
2018-09-01T08:35:45.079Z,14.20
2018-09-01T08:37:49.723Z,14.20
2018-09-01T08:39:54.418Z,14.20
2018-09-01T08:41:58.975Z,14.30
2018-09-01T08:44:03.653Z,14.40
2018-09-01T08:46:08.266Z,14.40
2018-09-01T08:48:13.250Z,14.60
2018-09-01T08:50:17.969Z,14.70
2018-09-01T08:52:23.304Z,14.70
2018-09-01T08:54:27.622Z,14.60
2018-09-01T08:56:32.110Z,14.60
2018-09-01T08:58:36.805Z,14.60
2018-09-01T09:00:41.362Z,14.70
2018-09-01T09:02:45.788Z,14.70
2018-09-01T09:04:50.874Z,14.80
2018-09-01T09:06:55.431Z,14.70
2018-09-01T09:09:00.106Z,14.90
2018-09-01T09:11:04.786Z,14.90
2018-09-01T09:13:09.389Z,14.90
2018-09-01T09:15:13.904Z,15.00
2018-09-01T09:17:18.630Z,15.00
2018-09-01T09:19:23.259Z,15.10
2018-09-01T09:21:27.846Z,15.10
2018-09-01T09:23:32.391Z,15.20
2018-09-01T09:25:36.893Z,15.20
2018-09-01T09:27:50.064Z,15.20
2018-09-01T09:29:54.553Z,15.30
2018-09-01T09:31:58.957Z,15.30
2018-09-01T09:34:03.545Z,15.40
2018-09-01T09:36:08.071Z,15.30
2018-09-01T09:38:12.575Z,15.30
2018-09-01T09:40:17.571Z,15.40
2018-09-01T09:42:22.180Z,15.50
2018-09-01T09:44:26.809Z,15.60
2018-09-01T09:46:32.293Z,15.60
2018-09-01T09:48:36.831Z,15.60
2018-09-01T09:50:41.879Z,15.50
2018-09-01T09:52:46.606Z,15.50
2018-09-01T09:54:51.217Z,15.60
2018-09-01T09:56:56.502Z,15.70
2018-09-01T09:59:00.905Z,15.70
2018-09-01T10:01:05.716Z,15.70
2018-09-01T10:03:10.826Z,15.80
2018-09-01T10:05:15.512Z,15.80
2018-09-01T10:07:20.154Z,15.80
2018-09-01T10:09:24.676Z,15.80
2018-09-01T10:11:29.217Z,15.70
2018-09-01T10:13:33.714Z,15.70
2018-09-01T10:15:38.105Z,15.80
2018-09-01T10:17:42.722Z,15.90
2018-09-01T10:19:48.351Z,16.00
2018-09-01T10:21:52.835Z,16.10
2018-09-01T10:23:57.757Z,16.10
2018-09-01T10:26:02.230Z,16.20
2018-09-01T10:28:06.885Z,16.30
2018-09-01T10:30:11.453Z,16.30
2018-09-01T10:32:16.050Z,16.20
2018-09-01T10:34:20.466Z,16.30
2018-09-01T10:36:25.038Z,16.70
2018-09-01T10:38:30.115Z,16.60
2018-09-01T10:40:34.679Z,16.40
2018-09-01T10:42:40.007Z,16.40
2018-09-01T10:44:44.578Z,16.40
2018-09-01T10:46:49.131Z,16.50
2018-09-01T10:48:53.761Z,16.50
2018-09-01T10:50:58.218Z,16.50
2018-09-01T10:53:02.790Z,16.50
2018-09-01T10:55:07.621Z,16.60
2018-09-01T10:57:12.800Z,16.60
2018-09-01T10:59:17.483Z,16.60
2018-09-01T11:01:22.318Z,16.60
2018-09-01T11:03:27.156Z,16.50
2018-09-01T11:05:31.635Z,17.00
2018-09-01T11:07:36.410Z,17.00
2018-09-01T11:09:41.115Z,16.80
2018-09-01T11:11:45.830Z,17.00
2018-09-01T11:13:50.455Z,17.50
2018-09-01T11:15:55.107Z,17.20
2018-09-01T11:17:59.533Z,16.90
2018-09-01T11:20:04.244Z,17.00
2018-09-01T11:22:16.792Z,17.00
2018-09-01T11:24:21.683Z,17.10
2018-09-01T11:26:26.333Z,17.00
2018-09-01T11:28:31.419Z,17.20
2018-09-01T11:30:35.979Z,17.10
2018-09-01T11:32:41.162Z,17.30
2018-09-01T11:34:45.612Z,17.40
2018-09-01T11:36:50.164Z,17.40
2018-09-01T11:38:54.656Z,17.40
2018-09-01T11:41:00.289Z,17.30
2018-09-01T11:43:04.847Z,17.30
2018-09-01T11:45:09.198Z,17.50
2018-09-01T11:47:14.242Z,17.40
2018-09-01T11:49:18.790Z,17.50
2018-09-01T11:51:23.303Z,17.50
2018-09-01T11:53:27.988Z,17.40
2018-09-01T11:55:32.424Z,17.70
2018-09-01T11:57:37.047Z,17.60
2018-09-01T11:59:41.573Z,17.50
2018-09-01T12:01:46.299Z,17.50
2018-09-01T12:03:51.270Z,17.40
2018-09-01T12:05:56.250Z,17.40
2018-09-01T12:08:00.850Z,17.40
2018-09-01T12:10:06.248Z,17.40
2018-09-01T12:12:11.018Z,17.40
2018-09-01T12:14:15.539Z,17.30
2018-09-01T12:16:20.535Z,17.40
2018-09-01T12:18:25.475Z,17.30
2018-09-01T12:20:30.866Z,17.30
2018-09-01T12:22:35.482Z,17.30
2018-09-01T12:24:39.874Z,17.40
2018-09-01T12:26:44.570Z,17.50
2018-09-01T12:28:49.125Z,17.40
2018-09-01T12:30:53.550Z,17.30
2018-09-01T12:32:58.197Z,17.20
2018-09-01T12:35:02.869Z,17.20
2018-09-01T12:37:07.373Z,17.20
2018-09-01T12:39:12.908Z,17.20
2018-09-01T12:41:17.683Z,17.30
2018-09-01T12:43:22.193Z,17.30
2018-09-01T12:45:26.753Z,17.40
2018-09-01T12:47:31.347Z,17.50
2018-09-01T12:49:36.799Z,17.50
2018-09-01T12:51:41.563Z,17.40
2018-09-01T12:53:46.368Z,17.40
2018-09-01T12:55:51.015Z,17.40
2018-09-01T12:57:55.463Z,17.70
2018-09-01T13:00:00.003Z,17.60
2018-09-01T13:02:04.710Z,17.70
2018-09-01T13:04:09.120Z,17.60
2018-09-01T13:06:14.266Z,17.60
2018-09-01T13:08:19.901Z,17.80
2018-09-01T13:10:24.281Z,18.10
2018-09-01T13:12:28.714Z,18.20
2018-09-01T13:14:33.871Z,18.50
2018-09-01T13:16:38.657Z,18.60
2018-09-01T13:18:43.636Z,19.20
2018-09-01T13:20:49.281Z,19.10
2018-09-01T13:22:53.573Z,19.10
2018-09-01T13:24:58.360Z,18.60
2018-09-01T13:27:02.903Z,18.90
2018-09-01T13:29:08.037Z,19.40
2018-09-01T13:31:13.864Z,19.70
2018-09-01T13:33:24.902Z,19.70
2018-09-01T13:35:29.397Z,19.00
2018-09-01T13:37:34.158Z,18.90
2018-09-01T13:39:41.251Z,19.10
2018-09-01T13:41:45.937Z,18.90
2018-09-01T13:43:50.612Z,18.90
2018-09-01T13:45:55.597Z,19.10
2018-09-01T13:48:00.241Z,19.10
2018-09-01T13:50:04.903Z,18.90
2018-09-01T13:52:09.420Z,18.90
2018-09-01T13:54:13.938Z,18.70
2018-09-01T13:56:18.457Z,18.60
2018-09-01T13:58:23.089Z,18.50
2018-09-01T14:00:27.609Z,18.50
2018-09-01T14:02:32.188Z,18.70
2018-09-01T14:04:36.614Z,18.60
2018-09-01T14:06:41.155Z,18.50
2018-09-01T14:08:45.637Z,18.50
2018-09-01T14:10:50.144Z,18.50
2018-09-01T14:12:54.622Z,18.70
2018-09-01T14:14:59.221Z,19.10
2018-09-01T14:17:04.086Z,19.20
2018-09-01T14:19:08.756Z,19.00
2018-09-01T14:21:13.883Z,19.00
2018-09-01T14:23:18.500Z,18.90
2018-09-01T14:25:22.918Z,18.80
2018-09-01T14:27:27.374Z,18.80
2018-09-01T14:29:31.871Z,18.80
2018-09-01T14:31:36.605Z,18.70
2018-09-01T14:33:41.206Z,18.70
2018-09-01T14:35:45.903Z,18.60
2018-09-01T14:37:50.473Z,18.60
2018-09-01T14:39:54.937Z,18.50
2018-09-01T14:41:59.305Z,18.50
2018-09-01T14:44:03.807Z,18.40
2018-09-01T14:46:08.263Z,18.40
2018-09-01T14:48:12.675Z,18.40
2018-09-01T14:50:17.174Z,18.40
2018-09-01T14:52:22.935Z,18.40
2018-09-01T14:54:27.493Z,18.50
2018-09-01T14:56:32.055Z,19.10
2018-09-01T14:58:36.439Z,18.80
2018-09-01T15:00:41.255Z,19.00
2018-09-01T15:02:45.968Z,19.10
2018-09-01T15:04:50.504Z,19.40
2018-09-01T15:06:55.881Z,19.50
2018-09-01T15:09:00.513Z,19.90
2018-09-01T15:11:04.958Z,19.80
2018-09-01T15:13:10.141Z,19.50
2018-09-01T15:15:14.554Z,19.50
2018-09-01T15:17:19.637Z,19.40
2018-09-01T15:19:24.731Z,19.40
2018-09-01T15:21:29.251Z,19.40
2018-09-01T15:23:33.999Z,19.90
2018-09-01T15:25:38.467Z,20.30
2018-09-01T15:27:43.223Z,20.20
2018-09-01T15:29:47.891Z,20.50
2018-09-01T15:31:53.131Z,20.90
2018-09-01T15:33:57.913Z,20.50
2018-09-01T15:36:02.321Z,20.30
2018-09-01T15:38:06.694Z,20.40
2018-09-01T15:40:11.849Z,20.20
2018-09-01T15:42:16.990Z,20.10
2018-09-01T15:44:21.491Z,19.90
2018-09-01T15:46:26.205Z,20.40
2018-09-01T15:48:30.950Z,20.60
2018-09-01T15:50:35.908Z,20.30
2018-09-01T15:52:40.433Z,20.00
2018-09-01T15:54:44.932Z,19.80
2018-09-01T15:56:49.482Z,19.70
2018-09-01T15:58:54.245Z,19.70
2018-09-01T16:00:58.953Z,19.70
2018-09-01T16:03:03.821Z,19.60
2018-09-01T16:05:08.934Z,19.50
2018-09-01T16:07:14.446Z,19.30
2018-09-01T16:09:19.243Z,19.30
2018-09-01T16:11:24.546Z,19.20
2018-09-01T16:13:29.089Z,19.10
2018-09-01T16:15:33.896Z,19.10
2018-09-01T16:17:38.470Z,19.00
2018-09-01T16:19:43.138Z,19.10
2018-09-01T16:21:47.646Z,19.00
2018-09-01T16:23:53.317Z,19.00
2018-09-01T16:25:57.818Z,19.00
2018-09-01T16:28:02.374Z,19.00
2018-09-01T16:30:07.192Z,18.80
2018-09-01T16:32:11.939Z,18.80
2018-09-01T16:34:16.518Z,18.70
2018-09-01T16:36:20.898Z,18.70
2018-09-01T16:38:25.325Z,18.70
2018-09-01T16:40:30.489Z,18.80
2018-09-01T16:42:34.888Z,18.70
2018-09-01T16:44:39.456Z,18.80
2018-09-01T16:46:44.306Z,18.80
2018-09-01T16:48:49.098Z,18.70
2018-09-01T16:50:53.766Z,18.70
2018-09-01T16:52:58.357Z,18.70
2018-09-01T16:55:03.098Z,18.60
2018-09-01T16:57:08.810Z,18.50
2018-09-01T16:59:14.354Z,18.50
2018-09-01T17:01:18.798Z,18.50
2018-09-01T17:03:23.266Z,18.50
2018-09-01T17:05:27.967Z,18.50
2018-09-01T17:07:32.425Z,18.50
2018-09-01T17:09:37.285Z,18.50
2018-09-01T17:11:41.876Z,18.50
2018-09-01T17:13:46.447Z,18.50
2018-09-01T17:15:51.250Z,18.40
2018-09-01T17:17:57.121Z,18.40
2018-09-01T17:20:01.488Z,18.30
2018-09-01T17:22:06.082Z,18.40
2018-09-01T17:24:10.535Z,18.30
2018-09-01T17:26:15.158Z,18.30
2018-09-01T17:28:20.184Z,18.20
2018-09-01T17:30:24.825Z,18.30
2018-09-01T17:32:29.026Z,18.20
2018-09-01T17:34:33.150Z,18.20
2018-09-01T17:36:37.421Z,18.20
2018-09-01T17:38:41.656Z,18.20
2018-09-01T17:40:45.859Z,18.20
2018-09-01T17:42:50.402Z,18.10
2018-09-01T17:44:54.579Z,18.20
2018-09-01T17:46:58.801Z,18.10
2018-09-01T17:49:03.006Z,18.00
2018-09-01T17:51:07.226Z,18.10
2018-09-01T17:53:11.454Z,18.10
2018-09-01T17:55:15.718Z,18.00
2018-09-01T17:57:20.183Z,18.00
2018-09-01T17:59:24.418Z,18.00
2018-09-01T18:01:29.099Z,18.00
2018-09-01T18:03:33.364Z,17.90
2018-09-01T18:05:37.562Z,17.90
2018-09-01T18:07:41.810Z,17.90
2018-09-01T18:09:46.493Z,17.80
2018-09-01T18:11:50.684Z,17.90
2018-09-01T18:13:54.940Z,17.80
2018-09-01T18:16:00.654Z,17.80
2018-09-01T18:18:05.057Z,17.70
2018-09-01T18:20:09.278Z,17.70
2018-09-01T18:22:13.518Z,17.70
2018-09-01T18:24:17.791Z,17.70
2018-09-01T18:26:22.071Z,17.70
2018-09-01T18:28:26.240Z,17.60
2018-09-01T18:30:30.331Z,17.60
2018-09-01T18:32:34.528Z,17.60
2018-09-01T18:34:39.271Z,17.50
2018-09-01T18:36:43.483Z,17.50
2018-09-01T18:38:47.729Z,17.50
2018-09-01T18:40:51.952Z,17.60
2018-09-01T18:42:56.135Z,17.50
2018-09-01T18:45:00.422Z,17.50
2018-09-01T18:47:04.586Z,17.50
2018-09-01T18:49:08.774Z,17.50
2018-09-01T18:51:13.007Z,17.40
2018-09-01T18:53:17.254Z,17.40
2018-09-01T18:55:21.409Z,17.40
2018-09-01T18:57:25.591Z,17.40
2018-09-01T18:59:29.729Z,17.40
2018-09-01T19:01:33.938Z,17.40
2018-09-01T19:03:38.209Z,17.30
2018-09-01T19:05:42.415Z,17.30
2018-09-01T19:07:46.620Z,17.30
2018-09-01T19:09:50.778Z,17.30
2018-09-01T19:11:54.989Z,17.30
2018-09-01T19:13:59.206Z,17.20
2018-09-01T19:16:03.481Z,17.20
2018-09-01T19:18:07.751Z,17.20
2018-09-01T19:20:12.036Z,17.10
2018-09-01T19:22:16.251Z,17.10
2018-09-01T19:24:20.842Z,17.10
2018-09-01T19:26:25.337Z,17.10
2018-09-01T19:28:29.530Z,17.00
2018-09-01T19:30:33.787Z,17.10
2018-09-01T19:32:38.253Z,17.10
2018-09-01T19:34:42.498Z,17.00
2018-09-01T19:36:46.961Z,17.00
2018-09-01T19:38:51.234Z,16.90
2018-09-01T19:40:55.466Z,16.80
2018-09-01T19:42:59.744Z,16.70
2018-09-01T19:45:03.987Z,16.60
2018-09-01T19:47:08.281Z,16.70
2018-09-01T19:49:12.574Z,16.60
2018-09-01T19:51:16.831Z,16.60
2018-09-01T19:53:21.007Z,16.60
2018-09-01T19:55:25.201Z,16.60
2018-09-01T19:57:29.476Z,16.60
2018-09-01T19:59:33.754Z,16.50
2018-09-01T20:01:37.909Z,16.60
2018-09-01T20:03:42.079Z,16.60
2018-09-01T20:05:46.326Z,16.50
2018-09-01T20:07:50.515Z,16.50
2018-09-01T20:09:54.758Z,16.50
2018-09-01T20:11:58.930Z,16.50
2018-09-01T20:14:03.317Z,16.50
2018-09-01T20:16:07.532Z,16.40
2018-09-01T20:18:11.890Z,16.20
2018-09-01T20:20:16.141Z,16.10
2018-09-01T20:22:20.327Z,16.20
2018-09-01T20:24:24.494Z,16.30
2018-09-01T20:26:29.090Z,16.30
2018-09-01T20:28:33.339Z,16.30
2018-09-01T20:30:37.605Z,16.30
2018-09-01T20:32:41.798Z,16.30
2018-09-01T20:34:47.699Z,16.30
2018-09-01T20:36:51.973Z,16.30
2018-09-01T20:38:56.268Z,16.20
2018-09-01T20:41:00.487Z,16.20
2018-09-01T20:43:05.260Z,16.20
2018-09-01T20:45:09.589Z,16.10
2018-09-01T20:47:13.786Z,16.20
2018-09-01T20:49:17.962Z,16.10
2018-09-01T20:51:22.086Z,16.10
2018-09-01T20:53:26.262Z,16.10
2018-09-01T20:55:30.454Z,16.10
2018-09-01T20:57:34.728Z,16.10
2018-09-01T20:59:38.892Z,16.00
2018-09-01T21:01:43.039Z,16.00
2018-09-01T21:03:47.228Z,16.00
2018-09-01T21:05:51.434Z,16.00
2018-09-01T21:07:55.775Z,16.00
2018-09-01T21:10:00.023Z,15.70
2018-09-01T21:12:04.223Z,15.80
2018-09-01T21:14:08.625Z,15.70
2018-09-01T21:16:12.888Z,15.80
2018-09-01T21:18:17.225Z,15.80
2018-09-01T21:20:21.619Z,15.80
2018-09-01T21:22:25.796Z,15.80
2018-09-01T21:24:29.974Z,15.80
2018-09-01T21:26:34.177Z,15.80
2018-09-01T21:28:38.347Z,15.80
2018-09-01T21:30:42.949Z,15.80
2018-09-01T21:32:47.175Z,15.70
2018-09-01T21:34:51.424Z,15.80
2018-09-01T21:36:56.176Z,15.70
2018-09-01T21:39:02.178Z,15.70
2018-09-01T21:41:07.365Z,15.50
2018-09-01T21:43:12.391Z,15.50
2018-09-01T21:45:17.893Z,15.40
2018-09-01T21:47:23.035Z,15.50
2018-09-01T21:49:28.475Z,15.60
2018-09-01T21:51:32.641Z,15.60
2018-09-01T21:53:38.127Z,15.50
2018-09-01T21:55:43.239Z,15.60
2018-09-01T21:57:48.283Z,15.50
2018-09-01T21:59:53.162Z,15.50
2018-09-01T22:02:03.746Z,15.50
2018-09-01T22:04:08.344Z,15.50
2018-09-01T22:06:12.530Z,15.50
2018-09-01T22:08:17.216Z,15.50
2018-09-01T22:10:21.500Z,15.50
2018-09-01T22:12:26.452Z,15.50
2018-09-01T22:14:30.715Z,15.40
2018-09-01T22:16:34.942Z,15.40
2018-09-01T22:18:39.376Z,15.40
2018-09-01T22:20:44.392Z,15.40
2018-09-01T22:22:49.523Z,15.40
2018-09-01T22:24:54.243Z,15.30
2018-09-01T22:26:58.917Z,15.30
2018-09-01T22:29:04.317Z,15.30
2018-09-01T22:31:08.819Z,15.30
2018-09-01T22:33:13.338Z,15.10
2018-09-01T22:35:19.089Z,15.10
2018-09-01T22:37:24.398Z,15.20
2018-09-01T22:39:29.108Z,15.20
2018-09-01T22:41:33.736Z,15.10
2018-09-01T22:43:38.362Z,15.10
2018-09-01T22:45:42.950Z,15.10
2018-09-01T22:47:47.286Z,15.10
2018-09-01T22:49:52.395Z,15.10
2018-09-01T22:51:56.902Z,15.10
2018-09-01T22:54:01.409Z,15.10
2018-09-01T22:56:05.926Z,15.10
2018-09-01T22:58:11.248Z,15.10
2018-09-01T23:00:15.942Z,15.00
2018-09-01T23:02:20.651Z,15.00
2018-09-01T23:04:25.183Z,15.00
2018-09-01T23:06:29.633Z,14.90
2018-09-01T23:08:34.313Z,14.90
2018-09-01T23:10:38.963Z,14.90
2018-09-01T23:12:43.430Z,14.90
2018-09-01T23:14:48.269Z,14.90
2018-09-01T23:16:52.838Z,14.90
2018-09-01T23:18:57.173Z,14.90
2018-09-01T23:21:01.586Z,14.90
2018-09-01T23:23:06.281Z,14.90
2018-09-01T23:25:11.038Z,14.80
2018-09-01T23:27:15.730Z,14.80
2018-09-01T23:29:21.482Z,14.80
2018-09-01T23:31:26.225Z,14.80
2018-09-01T23:33:30.817Z,14.80
2018-09-01T23:35:36.041Z,14.80
2018-09-01T23:37:40.620Z,14.80
2018-09-01T23:39:45.094Z,14.70
2018-09-01T23:41:49.782Z,14.70
2018-09-01T23:43:54.250Z,14.70
2018-09-01T23:45:58.771Z,14.70
2018-09-01T23:48:03.430Z,14.70
2018-09-01T23:50:09.090Z,14.60
2018-09-01T23:52:13.947Z,14.60
2018-09-01T23:54:18.523Z,14.60
2018-09-01T23:56:22.993Z,14.60
2018-09-01T23:58:28.122Z,14.60
